sensor_id;sensor_type;location;lat;lon;timestamp;P1;durP1;ratioP1;P2;durP2;ratioP2
19739;SDS011;10027;51.066;13.768;2023-05-07T00:02:18;12.70;;;7.40;;
19739;SDS011;10027;51.066;13.768;2023-05-07T00:04:45;10.30;;;7.03;;
19739;SDS011;10027;51.066;13.768;2023-05-07T00:07:12;11.97;;;7.23;;
19739;SDS011;10027;51.066;13.768;2023-05-07T00:09:40;12.43;;;7.83;;
19739;SDS011;10027;51.066;13.768;2023-05-07T00:12:07;11.93;;;7.33;;
19739;SDS011;10027;51.066;13.768;2023-05-07T00:14:34;11.63;;;7.60;;
19739;SDS011;10027;51.066;13.768;2023-05-07T00:17:01;11.03;;;7.30;;
19739;SDS011;10027;51.066;13.768;2023-05-07T00:19:28;13.50;;;8.67;;
19739;SDS011;10027;51.066;13.768;2023-05-07T00:21:56;12.50;;;8.20;;
19739;SDS011;10027;51.066;13.768;2023-05-07T00:24:24;13.13;;;8.47;;
19739;SDS011;10027;51.066;13.768;2023-05-07T00:26:51;13.97;;;8.60;;
19739;SDS011;10027;51.066;13.768;2023-05-07T00:29:18;13.83;;;8.57;;
19739;SDS011;10027;51.066;13.768;2023-05-07T00:31:46;13.00;;;8.73;;
19739;SDS011;10027;51.066;13.768;2023-05-07T00:34:13;13.43;;;8.80;;
19739;SDS011;10027;51.066;13.768;2023-05-07T00:36:40;14.03;;;9.10;;
19739;SDS011;10027;51.066;13.768;2023-05-07T00:39:07;14.00;;;9.07;;
19739;SDS011;10027;51.066;13.768;2023-05-07T00:41:34;14.67;;;9.43;;
19739;SDS011;10027;51.066;13.768;2023-05-07T00:44:03;14.20;;;9.37;;
19739;SDS011;10027;51.066;13.768;2023-05-07T00:46:31;15.20;;;9.13;;
19739;SDS011;10027;51.066;13.768;2023-05-07T00:48:59;15.30;;;10.00;;
19739;SDS011;10027;51.066;13.768;2023-05-07T00:51:26;12.80;;;9.23;;
19739;SDS011;10027;51.066;13.768;2023-05-07T00:53:54;14.73;;;9.10;;
19739;SDS011;10027;51.066;13.768;2023-05-07T00:56:21;15.90;;;10.03;;
19739;SDS011;10027;51.066;13.768;2023-05-07T00:58:49;13.60;;;9.23;;
19739;SDS011;10027;51.066;13.768;2023-05-07T01:01:16;14.17;;;9.43;;
19739;SDS011;10027;51.066;13.768;2023-05-07T01:03:44;12.50;;;9.10;;
19739;SDS011;10027;51.066;13.768;2023-05-07T01:06:11;13.90;;;9.07;;
19739;SDS011;10027;51.066;13.768;2023-05-07T01:08:39;13.27;;;8.80;;
19739;SDS011;10027;51.066;13.768;2023-05-07T01:11:08;12.63;;;8.77;;
19739;SDS011;10027;51.066;13.768;2023-05-07T01:13:35;11.97;;;8.17;;
19739;SDS011;10027;51.066;13.768;2023-05-07T01:16:03;13.07;;;8.57;;
19739;SDS011;10027;51.066;13.768;2023-05-07T01:18:31;13.10;;;8.43;;
19739;SDS011;10027;51.066;13.768;2023-05-07T01:20:58;12.13;;;8.43;;
19739;SDS011;10027;51.066;13.768;2023-05-07T01:23:26;13.13;;;9.10;;
19739;SDS011;10027;51.066;13.768;2023-05-07T01:25:54;12.53;;;8.60;;
19739;SDS011;10027;51.066;13.768;2023-05-07T01:28:21;10.93;;;8.40;;
19739;SDS011;10027;51.066;13.768;2023-05-07T01:31:06;11.00;;;7.67;;
19739;SDS011;10027;51.066;13.768;2023-05-07T01:33:34;11.87;;;8.33;;
19739;SDS011;10027;51.066;13.768;2023-05-07T01:36:03;13.57;;;8.37;;
19739;SDS011;10027;51.066;13.768;2023-05-07T01:38:32;10.87;;;8.30;;
19739;SDS011;10027;51.066;13.768;2023-05-07T01:41:00;10.73;;;7.70;;
19739;SDS011;10027;51.066;13.768;2023-05-07T01:43:28;13.63;;;8.60;;
19739;SDS011;10027;51.066;13.768;2023-05-07T01:45:56;11.20;;;8.23;;
19739;SDS011;10027;51.066;13.768;2023-05-07T01:48:24;13.30;;;9.00;;
19739;SDS011;10027;51.066;13.768;2023-05-07T01:50:51;12.37;;;9.10;;
19739;SDS011;10027;51.066;13.768;2023-05-07T01:53:19;14.20;;;9.00;;
19739;SDS011;10027;51.066;13.768;2023-05-07T01:55:46;12.43;;;8.73;;
19739;SDS011;10027;51.066;13.768;2023-05-07T01:58:13;13.57;;;8.90;;
19739;SDS011;10027;51.066;13.768;2023-05-07T02:00:40;13.00;;;7.83;;
19739;SDS011;10027;51.066;13.768;2023-05-07T02:03:08;14.93;;;8.47;;
19739;SDS011;10027;51.066;13.768;2023-05-07T02:05:35;12.53;;;8.13;;
19739;SDS011;10027;51.066;13.768;2023-05-07T02:08:03;12.47;;;8.13;;
19739;SDS011;10027;51.066;13.768;2023-05-07T02:10:30;12.03;;;8.30;;
19739;SDS011;10027;51.066;13.768;2023-05-07T02:12:57;14.47;;;8.90;;
19739;SDS011;10027;51.066;13.768;2023-05-07T02:15:25;11.73;;;8.07;;
19739;SDS011;10027;51.066;13.768;2023-05-07T02:18:03;14.20;;;8.13;;
19739;SDS011;10027;51.066;13.768;2023-05-07T02:20:31;11.93;;;7.97;;
19739;SDS011;10027;51.066;13.768;2023-05-07T02:22:58;11.57;;;8.60;;
19739;SDS011;10027;51.066;13.768;2023-05-07T02:25:26;12.93;;;8.63;;
19739;SDS011;10027;51.066;13.768;2023-05-07T02:27:53;11.63;;;7.80;;
19739;SDS011;10027;51.066;13.768;2023-05-07T02:30:20;12.53;;;8.67;;
19739;SDS011;10027;51.066;13.768;2023-05-07T02:32:48;11.07;;;8.27;;
19739;SDS011;10027;51.066;13.768;2023-05-07T02:35:15;15.43;;;8.47;;
19739;SDS011;10027;51.066;13.768;2023-05-07T02:37:42;11.00;;;7.53;;
19739;SDS011;10027;51.066;13.768;2023-05-07T02:40:09;10.30;;;7.70;;
19739;SDS011;10027;51.066;13.768;2023-05-07T02:42:37;11.50;;;7.67;;
19739;SDS011;10027;51.066;13.768;2023-05-07T02:45:05;10.07;;;7.00;;
19739;SDS011;10027;51.066;13.768;2023-05-07T02:47:32;10.77;;;7.70;;
19739;SDS011;10027;51.066;13.768;2023-05-07T02:49:59;9.90;;;7.27;;
19739;SDS011;10027;51.066;13.768;2023-05-07T02:52:27;10.30;;;6.93;;
19739;SDS011;10027;51.066;13.768;2023-05-07T02:54:54;9.20;;;6.50;;
19739;SDS011;10027;51.066;13.768;2023-05-07T02:57:21;9.00;;;6.13;;
19739;SDS011;10027;51.066;13.768;2023-05-07T02:59:48;9.20;;;6.40;;
19739;SDS011;10027;51.066;13.768;2023-05-07T03:02:15;8.80;;;5.90;;
19739;SDS011;10027;51.066;13.768;2023-05-07T03:04:43;10.13;;;6.30;;
19739;SDS011;10027;51.066;13.768;2023-05-07T03:07:10;12.00;;;5.97;;
19739;SDS011;10027;51.066;13.768;2023-05-07T03:09:37;7.97;;;5.63;;
19739;SDS011;10027;51.066;13.768;2023-05-07T03:12:04;7.00;;;5.63;;
19739;SDS011;10027;51.066;13.768;2023-05-07T03:14:31;9.73;;;5.97;;
19739;SDS011;10027;51.066;13.768;2023-05-07T03:16:59;9.40;;;6.63;;
19739;SDS011;10027;51.066;13.768;2023-05-07T03:19:26;9.70;;;6.70;;
19739;SDS011;10027;51.066;13.768;2023-05-07T03:21:53;10.77;;;6.23;;
19739;SDS011;10027;51.066;13.768;2023-05-07T03:24:21;9.93;;;6.33;;
19739;SDS011;10027;51.066;13.768;2023-05-07T03:26:48;10.07;;;6.47;;
19739;SDS011;10027;51.066;13.768;2023-05-07T03:29:16;11.53;;;7.00;;
19739;SDS011;10027;51.066;13.768;2023-05-07T03:31:43;9.60;;;6.47;;
19739;SDS011;10027;51.066;13.768;2023-05-07T03:34:11;10.80;;;6.43;;
19739;SDS011;10027;51.066;13.768;2023-05-07T03:36:38;10.33;;;6.23;;
19739;SDS011;10027;51.066;13.768;2023-05-07T03:39:05;9.53;;;6.57;;
19739;SDS011;10027;51.066;13.768;2023-05-07T03:41:33;10.83;;;7.07;;
19739;SDS011;10027;51.066;13.768;2023-05-07T03:44:00;10.50;;;7.00;;
19739;SDS011;10027;51.066;13.768;2023-05-07T03:46:27;10.80;;;7.10;;
19739;SDS011;10027;51.066;13.768;2023-05-07T03:48:54;13.13;;;6.90;;
19739;SDS011;10027;51.066;13.768;2023-05-07T03:51:21;11.47;;;7.20;;
19739;SDS011;10027;51.066;13.768;2023-05-07T03:53:48;10.33;;;6.87;;
19739;SDS011;10027;51.066;13.768;2023-05-07T03:56:19;12.40;;;7.50;;
19739;SDS011;10027;51.066;13.768;2023-05-07T03:58:47;10.67;;;6.87;;
19739;SDS011;10027;51.066;13.768;2023-05-07T04:01:14;11.77;;;7.37;;
19739;SDS011;10027;51.066;13.768;2023-05-07T04:03:41;11.23;;;7.17;;
19739;SDS011;10027;51.066;13.768;2023-05-07T04:06:08;11.70;;;7.80;;
19739;SDS011;10027;51.066;13.768;2023-05-07T04:08:36;15.17;;;7.80;;
19739;SDS011;10027;51.066;13.768;2023-05-07T04:11:03;11.33;;;7.33;;
19739;SDS011;10027;51.066;13.768;2023-05-07T04:13:31;11.67;;;7.60;;
19739;SDS011;10027;51.066;13.768;2023-05-07T04:15:58;12.33;;;7.23;;
19739;SDS011;10027;51.066;13.768;2023-05-07T04:18:25;11.83;;;7.43;;
19739;SDS011;10027;51.066;13.768;2023-05-07T04:20:52;11.47;;;7.20;;
19739;SDS011;10027;51.066;13.768;2023-05-07T04:23:19;10.83;;;6.83;;
19739;SDS011;10027;51.066;13.768;2023-05-07T04:25:47;12.27;;;7.43;;
19739;SDS011;10027;51.066;13.768;2023-05-07T04:28:14;11.80;;;7.07;;
19739;SDS011;10027;51.066;13.768;2023-05-07T04:30:41;10.97;;;7.00;;
19739;SDS011;10027;51.066;13.768;2023-05-07T04:33:08;11.70;;;7.20;;
19739;SDS011;10027;51.066;13.768;2023-05-07T04:35:35;12.23;;;7.37;;
19739;SDS011;10027;51.066;13.768;2023-05-07T04:38:03;11.83;;;7.77;;
19739;SDS011;10027;51.066;13.768;2023-05-07T04:40:30;11.43;;;7.00;;
19739;SDS011;10027;51.066;13.768;2023-05-07T04:42:57;13.33;;;7.43;;
19739;SDS011;10027;51.066;13.768;2023-05-07T04:45:24;11.67;;;7.20;;
19739;SDS011;10027;51.066;13.768;2023-05-07T04:47:51;9.13;;;6.50;;
19739;SDS011;10027;51.066;13.768;2023-05-07T04:50:18;10.77;;;7.17;;
19739;SDS011;10027;51.066;13.768;2023-05-07T04:52:46;10.80;;;6.57;;
19739;SDS011;10027;51.066;13.768;2023-05-07T04:55:13;9.30;;;6.03;;
19739;SDS011;10027;51.066;13.768;2023-05-07T04:57:40;10.63;;;6.63;;
19739;SDS011;10027;51.066;13.768;2023-05-07T05:00:08;9.30;;;6.70;;
19739;SDS011;10027;51.066;13.768;2023-05-07T05:02:35;10.30;;;6.87;;
19739;SDS011;10027;51.066;13.768;2023-05-07T05:05:03;9.37;;;6.07;;
19739;SDS011;10027;51.066;13.768;2023-05-07T05:07:30;8.93;;;5.90;;
19739;SDS011;10027;51.066;13.768;2023-05-07T05:09:57;10.03;;;6.33;;
19739;SDS011;10027;51.066;13.768;2023-05-07T05:12:25;9.23;;;6.10;;
19739;SDS011;10027;51.066;13.768;2023-05-07T05:14:52;12.60;;;6.53;;
19739;SDS011;10027;51.066;13.768;2023-05-07T05:17:19;9.43;;;6.63;;
19739;SDS011;10027;51.066;13.768;2023-05-07T05:19:47;10.50;;;6.73;;
19739;SDS011;10027;51.066;13.768;2023-05-07T05:22:14;9.20;;;6.47;;
19739;SDS011;10027;51.066;13.768;2023-05-07T05:24:41;10.10;;;6.87;;
19739;SDS011;10027;51.066;13.768;2023-05-07T05:27:08;9.60;;;6.37;;
19739;SDS011;10027;51.066;13.768;2023-05-07T05:29:35;11.10;;;7.37;;
19739;SDS011;10027;51.066;13.768;2023-05-07T05:32:03;11.23;;;7.37;;
19739;SDS011;10027;51.066;13.768;2023-05-07T05:34:30;13.63;;;7.70;;
19739;SDS011;10027;51.066;13.768;2023-05-07T05:36:59;11.77;;;7.40;;
19739;SDS011;10027;51.066;13.768;2023-05-07T05:39:26;11.00;;;7.37;;
19739;SDS011;10027;51.066;13.768;2023-05-07T05:41:53;11.43;;;7.30;;
19739;SDS011;10027;51.066;13.768;2023-05-07T05:44:20;13.53;;;8.13;;
19739;SDS011;10027;51.066;13.768;2023-05-07T05:46:48;11.97;;;7.47;;
19739;SDS011;10027;51.066;13.768;2023-05-07T05:49:16;12.27;;;7.67;;
19739;SDS011;10027;51.066;13.768;2023-05-07T05:51:43;9.47;;;6.20;;
19739;SDS011;10027;51.066;13.768;2023-05-07T05:54:10;10.97;;;6.57;;
19739;SDS011;10027;51.066;13.768;2023-05-07T05:56:37;9.63;;;6.77;;
19739;SDS011;10027;51.066;13.768;2023-05-07T05:59:05;9.33;;;6.20;;
19739;SDS011;10027;51.066;13.768;2023-05-07T06:01:32;8.57;;;5.80;;
19739;SDS011;10027;51.066;13.768;2023-05-07T06:03:59;8.57;;;6.10;;
19739;SDS011;10027;51.066;13.768;2023-05-07T06:06:26;8.97;;;5.43;;
19739;SDS011;10027;51.066;13.768;2023-05-07T06:08:54;7.40;;;4.83;;
19739;SDS011;10027;51.066;13.768;2023-05-07T06:11:21;8.30;;;5.30;;
19739;SDS011;10027;51.066;13.768;2023-05-07T06:13:48;8.63;;;5.33;;
19739;SDS011;10027;51.066;13.768;2023-05-07T06:16:15;8.23;;;5.30;;
19739;SDS011;10027;51.066;13.768;2023-05-07T06:18:42;7.07;;;4.90;;
19739;SDS011;10027;51.066;13.768;2023-05-07T06:21:11;8.63;;;5.77;;
19739;SDS011;10027;51.066;13.768;2023-05-07T06:23:38;8.97;;;5.90;;
19739;SDS011;10027;51.066;13.768;2023-05-07T06:26:07;9.50;;;5.33;;
19739;SDS011;10027;51.066;13.768;2023-05-07T06:28:34;8.13;;;5.13;;
19739;SDS011;10027;51.066;13.768;2023-05-07T06:31:14;10.57;;;5.70;;
19739;SDS011;10027;51.066;13.768;2023-05-07T06:33:43;8.77;;;5.60;;
19739;SDS011;10027;51.066;13.768;2023-05-07T06:36:10;8.43;;;5.80;;
19739;SDS011;10027;51.066;13.768;2023-05-07T06:38:38;8.40;;;5.17;;
19739;SDS011;10027;51.066;13.768;2023-05-07T06:41:05;7.10;;;5.40;;
19739;SDS011;10027;51.066;13.768;2023-05-07T06:43:33;7.93;;;5.33;;
19739;SDS011;10027;51.066;13.768;2023-05-07T06:46:00;7.63;;;5.30;;
19739;SDS011;10027;51.066;13.768;2023-05-07T06:48:27;7.27;;;5.30;;
19739;SDS011;10027;51.066;13.768;2023-05-07T06:50:54;8.87;;;4.90;;
19739;SDS011;10027;51.066;13.768;2023-05-07T06:53:23;7.57;;;5.43;;
19739;SDS011;10027;51.066;13.768;2023-05-07T06:55:52;6.87;;;5.27;;
19739;SDS011;10027;51.066;13.768;2023-05-07T06:58:19;8.43;;;6.07;;
19739;SDS011;10027;51.066;13.768;2023-05-07T07:00:46;8.50;;;6.00;;
19739;SDS011;10027;51.066;13.768;2023-05-07T07:03:13;8.87;;;5.80;;
19739;SDS011;10027;51.066;13.768;2023-05-07T07:05:41;7.13;;;5.60;;
19739;SDS011;10027;51.066;13.768;2023-05-07T07:08:08;7.90;;;5.27;;
19739;SDS011;10027;51.066;13.768;2023-05-07T07:10:35;7.87;;;5.53;;
19739;SDS011;10027;51.066;13.768;2023-05-07T07:13:02;8.13;;;5.40;;
19739;SDS011;10027;51.066;13.768;2023-05-07T07:15:29;6.57;;;4.40;;
19739;SDS011;10027;51.066;13.768;2023-05-07T07:17:57;7.43;;;4.40;;
19739;SDS011;10027;51.066;13.768;2023-05-07T07:20:24;6.40;;;4.50;;
19739;SDS011;10027;51.066;13.768;2023-05-07T07:22:51;5.30;;;4.13;;
19739;SDS011;10027;51.066;13.768;2023-05-07T07:25:19;4.40;;;3.73;;
19739;SDS011;10027;51.066;13.768;2023-05-07T07:27:46;4.17;;;3.37;;
19739;SDS011;10027;51.066;13.768;2023-05-07T07:30:13;4.23;;;3.33;;
19739;SDS011;10027;51.066;13.768;2023-05-07T07:32:40;5.13;;;3.70;;
19739;SDS011;10027;51.066;13.768;2023-05-07T07:35:07;6.30;;;4.03;;
19739;SDS011;10027;51.066;13.768;2023-05-07T07:37:34;4.77;;;3.80;;
19739;SDS011;10027;51.066;13.768;2023-05-07T07:40:02;4.27;;;3.47;;
19739;SDS011;10027;51.066;13.768;2023-05-07T07:42:29;4.20;;;3.47;;
19739;SDS011;10027;51.066;13.768;2023-05-07T07:44:56;3.73;;;3.23;;
19739;SDS011;10027;51.066;13.768;2023-05-07T07:47:24;4.33;;;3.37;;
19739;SDS011;10027;51.066;13.768;2023-05-07T07:49:51;4.30;;;3.37;;
19739;SDS011;10027;51.066;13.768;2023-05-07T07:52:18;3.80;;;3.40;;
19739;SDS011;10027;51.066;13.768;2023-05-07T07:54:45;3.73;;;3.00;;
19739;SDS011;10027;51.066;13.768;2023-05-07T07:57:13;4.13;;;3.37;;
19739;SDS011;10027;51.066;13.768;2023-05-07T07:59:40;3.87;;;3.27;;
19739;SDS011;10027;51.066;13.768;2023-05-07T08:02:09;4.17;;;3.20;;
19739;SDS011;10027;51.066;13.768;2023-05-07T08:04:36;3.63;;;3.10;;
19739;SDS011;10027;51.066;13.768;2023-05-07T08:07:04;3.23;;;2.93;;
19739;SDS011;10027;51.066;13.768;2023-05-07T08:09:32;3.50;;;2.83;;
19739;SDS011;10027;51.066;13.768;2023-05-07T08:11:59;3.63;;;3.00;;
19739;SDS011;10027;51.066;13.768;2023-05-07T08:14:27;3.57;;;3.00;;
19739;SDS011;10027;51.066;13.768;2023-05-07T08:17:12;3.60;;;2.43;;
19739;SDS011;10027;51.066;13.768;2023-05-07T08:19:42;3.43;;;2.90;;
19739;SDS011;10027;51.066;13.768;2023-05-07T08:22:10;4.07;;;3.20;;
19739;SDS011;10027;51.066;13.768;2023-05-07T08:24:37;3.37;;;3.07;;
19739;SDS011;10027;51.066;13.768;2023-05-07T08:27:05;3.87;;;3.03;;
19739;SDS011;10027;51.066;13.768;2023-05-07T08:29:32;4.60;;;3.10;;
19739;SDS011;10027;51.066;13.768;2023-05-07T08:31:59;3.57;;;3.27;;
19739;SDS011;10027;51.066;13.768;2023-05-07T08:34:26;4.50;;;3.40;;
19739;SDS011;10027;51.066;13.768;2023-05-07T08:36:53;4.30;;;3.90;;
19739;SDS011;10027;51.066;13.768;2023-05-07T08:39:21;4.20;;;3.80;;
19739;SDS011;10027;51.066;13.768;2023-05-07T08:41:49;4.03;;;3.60;;
19739;SDS011;10027;51.066;13.768;2023-05-07T08:44:18;4.10;;;3.70;;
19739;SDS011;10027;51.066;13.768;2023-05-07T08:46:48;4.93;;;3.90;;
19739;SDS011;10027;51.066;13.768;2023-05-07T08:49:20;4.67;;;4.10;;
19739;SDS011;10027;51.066;13.768;2023-05-07T08:51:47;5.07;;;4.20;;
19739;SDS011;10027;51.066;13.768;2023-05-07T08:54:17;5.93;;;4.50;;
19739;SDS011;10027;51.066;13.768;2023-05-07T08:56:46;5.07;;;4.27;;
19739;SDS011;10027;51.066;13.768;2023-05-07T08:59:13;5.67;;;4.10;;
19739;SDS011;10027;51.066;13.768;2023-05-07T09:01:40;6.20;;;4.67;;
19739;SDS011;10027;51.066;13.768;2023-05-07T09:04:07;5.33;;;4.20;;
19739;SDS011;10027;51.066;13.768;2023-05-07T09:06:35;5.17;;;4.10;;
19739;SDS011;10027;51.066;13.768;2023-05-07T09:09:04;6.23;;;4.73;;
19739;SDS011;10027;51.066;13.768;2023-05-07T09:11:31;6.50;;;5.00;;
19739;SDS011;10027;51.066;13.768;2023-05-07T09:13:58;6.40;;;4.20;;
19739;SDS011;10027;51.066;13.768;2023-05-07T09:16:28;6.60;;;4.80;;
19739;SDS011;10027;51.066;13.768;2023-05-07T09:18:59;6.23;;;4.77;;
19739;SDS011;10027;51.066;13.768;2023-05-07T09:21:27;6.77;;;5.13;;
19739;SDS011;10027;51.066;13.768;2023-05-07T09:23:54;7.17;;;5.10;;
19739;SDS011;10027;51.066;13.768;2023-05-07T09:26:22;6.60;;;5.00;;
19739;SDS011;10027;51.066;13.768;2023-05-07T09:28:49;5.53;;;4.43;;
19739;SDS011;10027;51.066;13.768;2023-05-07T09:31:17;5.00;;;4.17;;
19739;SDS011;10027;51.066;13.768;2023-05-07T09:33:46;5.43;;;4.30;;
19739;SDS011;10027;51.066;13.768;2023-05-07T09:36:14;6.53;;;4.73;;
19739;SDS011;10027;51.066;13.768;2023-05-07T09:38:41;6.43;;;4.57;;
19739;SDS011;10027;51.066;13.768;2023-05-07T09:41:09;5.73;;;4.40;;
19739;SDS011;10027;51.066;13.768;2023-05-07T09:43:37;6.03;;;4.60;;
19739;SDS011;10027;51.066;13.768;2023-05-07T09:46:10;5.87;;;4.43;;
19739;SDS011;10027;51.066;13.768;2023-05-07T09:48:39;5.87;;;4.70;;
19739;SDS011;10027;51.066;13.768;2023-05-07T09:51:15;5.77;;;4.90;;
19739;SDS011;10027;51.066;13.768;2023-05-07T09:53:43;6.20;;;4.83;;
19739;SDS011;10027;51.066;13.768;2023-05-07T09:56:13;8.13;;;6.07;;
19739;SDS011;10027;51.066;13.768;2023-05-07T09:58:41;6.83;;;5.20;;
19739;SDS011;10027;51.066;13.768;2023-05-07T10:01:10;5.90;;;4.93;;
19739;SDS011;10027;51.066;13.768;2023-05-07T10:03:37;7.13;;;5.63;;
19739;SDS011;10027;51.066;13.768;2023-05-07T10:06:07;6.30;;;5.20;;
19739;SDS011;10027;51.066;13.768;2023-05-07T10:08:35;6.83;;;5.50;;
19739;SDS011;10027;51.066;13.768;2023-05-07T10:11:03;6.27;;;5.10;;
19739;SDS011;10027;51.066;13.768;2023-05-07T10:13:31;6.27;;;5.17;;
19739;SDS011;10027;51.066;13.768;2023-05-07T10:15:59;7.87;;;4.63;;
19739;SDS011;10027;51.066;13.768;2023-05-07T10:18:27;7.07;;;5.07;;
19739;SDS011;10027;51.066;13.768;2023-05-07T10:20:56;6.27;;;4.83;;
19739;SDS011;10027;51.066;13.768;2023-05-07T10:23:25;5.73;;;4.80;;
19739;SDS011;10027;51.066;13.768;2023-05-07T10:25:53;5.60;;;4.80;;
19739;SDS011;10027;51.066;13.768;2023-05-07T10:28:26;6.37;;;4.83;;
19739;SDS011;10027;51.066;13.768;2023-05-07T10:33:41;5.80;;;5.00;;
19739;SDS011;10027;51.066;13.768;2023-05-07T10:36:09;6.37;;;4.80;;
19739;SDS011;10027;51.066;13.768;2023-05-07T10:38:36;6.43;;;5.23;;
19739;SDS011;10027;51.066;13.768;2023-05-07T10:41:04;7.13;;;5.40;;
19739;SDS011;10027;51.066;13.768;2023-05-07T10:43:39;6.97;;;5.17;;
19739;SDS011;10027;51.066;13.768;2023-05-07T10:46:17;6.40;;;5.53;;
19739;SDS011;10027;51.066;13.768;2023-05-07T10:51:31;5.87;;;4.37;;
19739;SDS011;10027;51.066;13.768;2023-05-07T10:56:39;6.97;;;4.77;;
19739;SDS011;10027;51.066;13.768;2023-05-07T11:04:23;5.30;;;4.43;;
19739;SDS011;10027;51.066;13.768;2023-05-07T11:15:13;5.60;;;4.60;;
19739;SDS011;10027;51.066;13.768;2023-05-07T11:17:53;4.60;;;4.00;;
19739;SDS011;10027;51.066;13.768;2023-05-07T11:20:41;5.13;;;4.07;;
19739;SDS011;10027;51.066;13.768;2023-05-07T11:26:00;6.13;;;4.17;;
19739;SDS011;10027;51.066;13.768;2023-05-07T11:28:27;4.50;;;4.10;;
19739;SDS011;10027;51.066;13.768;2023-05-07T11:30:54;4.80;;;4.30;;
19739;SDS011;10027;51.066;13.768;2023-05-07T11:33:23;4.73;;;4.23;;
19739;SDS011;10027;51.066;13.768;2023-05-07T11:35:53;4.40;;;4.00;;
19739;SDS011;10027;51.066;13.768;2023-05-07T11:38:20;4.80;;;4.30;;
19739;SDS011;10027;51.066;13.768;2023-05-07T11:40:48;4.87;;;4.27;;
19739;SDS011;10027;51.066;13.768;2023-05-07T11:43:16;4.43;;;4.00;;
19739;SDS011;10027;51.066;13.768;2023-05-07T11:45:44;5.07;;;4.20;;
19739;SDS011;10027;51.066;13.768;2023-05-07T11:48:13;4.77;;;4.20;;
19739;SDS011;10027;51.066;13.768;2023-05-07T11:50:54;5.43;;;4.17;;
19739;SDS011;10027;51.066;13.768;2023-05-07T11:53:24;5.50;;;4.43;;
19739;SDS011;10027;51.066;13.768;2023-05-07T11:55:57;5.07;;;4.37;;
19739;SDS011;10027;51.066;13.768;2023-05-07T11:58:24;4.87;;;4.20;;
19739;SDS011;10027;51.066;13.768;2023-05-07T12:00:52;6.27;;;5.67;;
19739;SDS011;10027;51.066;13.768;2023-05-07T12:03:20;5.30;;;4.53;;
19739;SDS011;10027;51.066;13.768;2023-05-07T12:05:48;6.20;;;4.20;;
19739;SDS011;10027;51.066;13.768;2023-05-07T12:08:16;4.63;;;4.13;;
19739;SDS011;10027;51.066;13.768;2023-05-07T12:10:43;5.57;;;4.60;;
19739;SDS011;10027;51.066;13.768;2023-05-07T12:13:29;6.00;;;4.70;;
19739;SDS011;10027;51.066;13.768;2023-05-07T12:15:56;5.07;;;4.23;;
19739;SDS011;10027;51.066;13.768;2023-05-07T12:18:24;4.83;;;4.10;;
19739;SDS011;10027;51.066;13.768;2023-05-07T12:20:51;4.93;;;4.30;;
19739;SDS011;10027;51.066;13.768;2023-05-07T12:23:18;8.97;;;4.50;;
19739;SDS011;10027;51.066;13.768;2023-05-07T12:25:46;4.67;;;4.17;;
19739;SDS011;10027;51.066;13.768;2023-05-07T12:28:14;5.03;;;4.53;;
19739;SDS011;10027;51.066;13.768;2023-05-07T12:30:42;6.07;;;4.47;;
19739;SDS011;10027;51.066;13.768;2023-05-07T12:33:10;4.40;;;4.00;;
19739;SDS011;10027;51.066;13.768;2023-05-07T12:35:39;5.40;;;3.97;;
19739;SDS011;10027;51.066;13.768;2023-05-07T12:38:10;4.70;;;4.20;;
19739;SDS011;10027;51.066;13.768;2023-05-07T12:40:47;4.57;;;4.00;;
19739;SDS011;10027;51.066;13.768;2023-05-07T12:45:44;5.60;;;4.30;;
19739;SDS011;10027;51.066;13.768;2023-05-07T12:48:11;6.10;;;4.30;;
19739;SDS011;10027;51.066;13.768;2023-05-07T12:50:39;5.03;;;4.50;;
19739;SDS011;10027;51.066;13.768;2023-05-07T12:53:06;4.80;;;4.30;;
19739;SDS011;10027;51.066;13.768;2023-05-07T12:56:08;4.97;;;4.27;;
19739;SDS011;10027;51.066;13.768;2023-05-07T12:58:28;4.87;;;4.30;;
19739;SDS011;10027;51.066;13.768;2023-05-07T13:00:56;6.23;;;4.13;;
19739;SDS011;10027;51.066;13.768;2023-05-07T13:03:30;5.27;;;4.23;;
19739;SDS011;10027;51.066;13.768;2023-05-07T13:05:59;5.10;;;4.33;;
19739;SDS011;10027;51.066;13.768;2023-05-07T13:08:33;4.73;;;4.07;;
19739;SDS011;10027;51.066;13.768;2023-05-07T13:11:03;4.90;;;4.13;;
19739;SDS011;10027;51.066;13.768;2023-05-07T13:13:30;4.67;;;4.23;;
19739;SDS011;10027;51.066;13.768;2023-05-07T13:15:58;4.80;;;3.70;;
19739;SDS011;10027;51.066;13.768;2023-05-07T13:18:26;4.47;;;3.77;;
19739;SDS011;10027;51.066;13.768;2023-05-07T13:20:54;6.00;;;4.03;;
19739;SDS011;10027;51.066;13.768;2023-05-07T13:23:21;5.03;;;3.83;;
19739;SDS011;10027;51.066;13.768;2023-05-07T13:25:48;4.37;;;3.80;;
19739;SDS011;10027;51.066;13.768;2023-05-07T13:28:16;5.60;;;4.30;;
19739;SDS011;10027;51.066;13.768;2023-05-07T13:30:44;4.53;;;4.03;;
19739;SDS011;10027;51.066;13.768;2023-05-07T13:33:11;4.87;;;3.83;;
19739;SDS011;10027;51.066;13.768;2023-05-07T13:35:38;10.23;;;3.80;;
19739;SDS011;10027;51.066;13.768;2023-05-07T13:38:05;5.50;;;4.20;;
19739;SDS011;10027;51.066;13.768;2023-05-07T13:40:33;7.33;;;4.50;;
19739;SDS011;10027;51.066;13.768;2023-05-07T13:43:00;6.50;;;4.50;;
19739;SDS011;10027;51.066;13.768;2023-05-07T13:45:30;4.53;;;3.93;;
19739;SDS011;10027;51.066;13.768;2023-05-07T13:47:58;4.87;;;4.00;;
19739;SDS011;10027;51.066;13.768;2023-05-07T13:50:25;4.80;;;4.13;;
19739;SDS011;10027;51.066;13.768;2023-05-07T13:52:53;4.70;;;4.00;;
19739;SDS011;10027;51.066;13.768;2023-05-07T13:55:21;4.67;;;4.13;;
19739;SDS011;10027;51.066;13.768;2023-05-07T13:57:54;4.00;;;3.60;;
19739;SDS011;10027;51.066;13.768;2023-05-07T14:00:23;4.00;;;3.60;;
19739;SDS011;10027;51.066;13.768;2023-05-07T14:02:50;3.90;;;3.50;;
19739;SDS011;10027;51.066;13.768;2023-05-07T14:05:18;3.43;;;2.97;;
19739;SDS011;10027;51.066;13.768;2023-05-07T14:07:45;3.50;;;3.20;;
19739;SDS011;10027;51.066;13.768;2023-05-07T14:10:13;4.60;;;3.80;;
19739;SDS011;10027;51.066;13.768;2023-05-07T14:12:41;3.83;;;3.43;;
19739;SDS011;10027;51.066;13.768;2023-05-07T14:15:08;3.43;;;3.13;;
19739;SDS011;10027;51.066;13.768;2023-05-07T14:17:35;3.73;;;3.43;;
19739;SDS011;10027;51.066;13.768;2023-05-07T14:20:03;3.40;;;3.10;;
19739;SDS011;10027;51.066;13.768;2023-05-07T14:22:30;4.80;;;3.70;;
19739;SDS011;10027;51.066;13.768;2023-05-07T14:24:57;3.90;;;3.57;;
19739;SDS011;10027;51.066;13.768;2023-05-07T14:27:30;3.40;;;3.10;;
19739;SDS011;10027;51.066;13.768;2023-05-07T14:29:58;3.27;;;2.97;;
19739;SDS011;10027;51.066;13.768;2023-05-07T14:32:25;3.80;;;2.90;;
19739;SDS011;10027;51.066;13.768;2023-05-07T14:34:52;4.93;;;3.00;;
19739;SDS011;10027;51.066;13.768;2023-05-07T14:37:19;3.17;;;2.73;;
19739;SDS011;10027;51.066;13.768;2023-05-07T14:39:46;3.23;;;2.93;;
19739;SDS011;10027;51.066;13.768;2023-05-07T14:42:16;3.90;;;3.47;;
19739;SDS011;10027;51.066;13.768;2023-05-07T14:44:44;4.37;;;3.13;;
19739;SDS011;10027;51.066;13.768;2023-05-07T14:47:12;3.53;;;3.23;;
19739;SDS011;10027;51.066;13.768;2023-05-07T14:49:40;3.97;;;3.40;;
19739;SDS011;10027;51.066;13.768;2023-05-07T14:52:08;3.80;;;3.40;;
19739;SDS011;10027;51.066;13.768;2023-05-07T14:54:36;3.50;;;3.20;;
19739;SDS011;10027;51.066;13.768;2023-05-07T14:57:05;5.20;;;3.67;;
19739;SDS011;10027;51.066;13.768;2023-05-07T14:59:32;4.10;;;3.70;;
19739;SDS011;10027;51.066;13.768;2023-05-07T15:02:00;3.70;;;3.40;;
19739;SDS011;10027;51.066;13.768;2023-05-07T15:04:32;3.57;;;3.27;;